Time;durP1;ratioP1;P1;durP2;ratioP2;P2;SDS_P1;SDS_P2;PMS_P1;PMS_P2;Temp;Humidity;BMP_temperature;BMP_pressure;BME280_temperature;BME280_humidity;BME280_pressure;Samples;Min_cycle;Max_cycle;Signal;HPM_P1;HPM_P2
2022/07/29 00:05:13;;;;;;;2.20;1.60;;;;;;;15.73;51.39;99908.88;430897;1270;141387;-60
2022/07/29 00:15:19;;;;;;;2.40;1.20;;;;;;;15.65;51.71;99907.25;431690;1270;141655;-61
2022/07/29 00:25:25;;;;;;;5.20;1.50;;;;;;;15.56;51.91;99922.23;431983;1270;141523;-60
2022/07/29 00:35:46;;;;;;;6.20;2.00;;;;;;;15.23;52.69;99932.58;430889;1270;141156;-61
2022/07/29 00:45:52;;;;;;;3.20;1.90;;;;;;;14.89;53.68;99934.14;431579;1270;142844;-61
2022/07/29 00:55:58;;;;;;;3.80;1.80;;;;;;;14.62;54.54;99929.73;430779;1271;142070;-61
2022/07/29 01:06:05;;;;;;;4.40;1.80;;;;;;;14.53;54.83;99923.20;431590;1269;140501;-60
2022/07/29 01:16:16;;;;;;;3.70;1.70;;;;;;;14.41;55.13;99923.06;431384;1270;145094;-63
2022/07/29 01:26:34;;;;;;;2.70;1.80;;;;;;;14.35;55.54;99923.86;430867;1270;196968;-60
2022/07/29 01:36:47;;;;;;;3.70;1.60;;;;;;;14.24;55.88;99920.29;431550;1271;140872;-61
2022/07/29 01:46:59;;;;;;;3.20;1.70;;;;;;;14.10;56.17;99914.09;431423;1271;142274;-61
2022/07/29 01:57:07;;;;;;;2.40;1.90;;;;;;;14.01;56.58;99910.50;431798;1270;141847;-61
2022/07/29 02:07:17;;;;;;;6.20;2.00;;;;;;;13.90;56.83;99911.42;432063;1270;140428;-63
2022/07/29 02:17:28;;;;;;;4.30;2.00;;;;;;;13.83;57.30;99901.62;430720;1270;147074;-61
2022/07/29 02:27:36;;;;;;;2.80;2.10;;;;;;;13.74;57.47;99899.91;432126;1270;141936;-62
2022/07/29 02:37:44;;;;;;;10.70;1.90;;;;;;;13.71;57.86;99888.36;431163;1270;142788;-61
2022/07/29 02:47:52;;;;;;;8.70;3.70;;;;;;;13.74;57.85;99884.65;431472;1270;142181;-63
2022/07/29 02:58:01;;;;;;;4.90;1.80;;;;;;;13.78;57.82;99882.98;431273;1271;142485;-60
2022/07/29 03:08:10;;;;;;;2.90;1.50;;;;;;;13.85;57.69;99889.66;430957;1270;142568;-61
2022/07/29 03:18:17;;;;;;;5.10;2.60;;;;;;;14.00;57.56;99887.50;432174;1271;145257;-59
2022/07/29 03:28:23;;;;;;;3.00;1.80;;;;;;;14.28;57.17;99881.38;431768;1270;142352;-61
2022/07/29 03:38:31;;;;;;;;;;;;;;;14.62;56.63;99882.55;431098;1270;143760;-62
2022/07/29 03:48:40;;;;;;;4.10;2.90;;;;;;;14.97;56.05;99888.52;431514;1271;129970;-60
2022/07/29 03:58:47;;;;;;;5.30;3.20;;;;;;;15.31;55.55;99890.48;431036;1270;142853;-61
2022/07/29 04:08:53;;;;;;;5.80;3.90;;;;;;;15.63;54.99;99893.66;431430;1273;142221;-61
2022/07/29 04:18:59;;;;;;;4.70;3.20;;;;;;;16.71;54.49;99904.09;431312;1270;142864;-60
2022/07/29 04:29:05;;;;;;;3.90;3.60;;;;;;;23.66;47.85;99900.33;431452;1270;141709;-60
2022/07/29 04:39:11;;;;;;;6.10;4.00;;;;;;;29.03;39.05;99890.90;431524;1270;141826;-61
2022/07/29 04:49:17;;;;;;;3.90;3.50;;;;;;;28.63;34.86;99893.46;432039;1270;144453;-60
2022/07/29 04:59:24;;;;;;;4.20;3.40;;;;;;;27.17;36.00;99887.98;431256;1270;141143;-58
2022/07/29 05:09:32;;;;;;;4.40;2.40;;;;;;;33.33;31.06;99891.11;431574;1271;141131;-67
2022/07/29 05:19:37;;;;;;;3.80;2.60;;;;;;;37.03;26.60;99890.56;431736;1270;141638;-62
2022/07/29 05:29:44;;;;;;;4.20;1.80;;;;;;;38.39;23.67;99889.18;433188;1270;141534;-61
2022/07/29 05:39:50;;;;;;;3.10;2.20;;;;;;;39.18;22.25;99888.45;447737;1270;142561;-61
2022/07/29 05:50:01;;;;;;;3.80;2.30;;;;;;;40.15;21.23;99888.27;447037;1270;143162;-60
2022/07/29 06:00:09;;;;;;;3.30;1.80;;;;;;;41.31;19.43;99893.81;435134;1270;141033;-58
2022/07/29 06:10:15;;;;;;;4.70;1.60;;;;;;;42.72;18.50;99896.76;431830;1271;141426;-60
2022/07/29 06:20:21;;;;;;;3.60;1.60;;;;;;;43.44;17.64;99896.38;430858;1271;146850;-60
2022/07/29 06:30:32;;;;;;;1.50;1.30;;;;;;;44.58;16.34;99893.59;431393;1270;141659;-61
2022/07/29 06:51:05;;;;;;;3.80;1.80;;;;;;;46.11;15.08;99889.12;431438;1271;145589;-60
2022/07/29 07:01:11;;;;;;;2.20;1.40;;;;;;;46.46;14.43;99895.48;431614;1271;142209;-61
2022/07/29 07:11:18;;;;;;;1.40;1.30;;;;;;;46.50;13.84;99895.94;430867;1272;142388;-61
2022/07/29 07:21:24;;;;;;;2.20;2.00;;;;;;;46.95;13.24;99889.08;432012;1270;143175;-59
2022/07/29 07:31:30;;;;;;;2.40;1.50;;;;;;;46.68;13.28;99889.05;431908;1270;140808;-61
2022/07/29 07:41:36;;;;;;;1.70;1.40;;;;;;;46.35;13.21;99889.96;431862;1271;142847;-61
2022/07/29 07:51:42;;;;;;;2.50;2.00;;;;;;;44.66;13.98;99878.94;432070;1270;141073;-62
2022/07/29 08:01:55;;;;;;;1.50;1.10;;;;;;;44.58;13.74;99879.34;431604;1270;143607;-60
2022/07/29 08:12:03;;;;;;;2.40;0.70;;;;;;;42.34;14.42;99874.75;432019;1270;141640;-60
2022/07/29 08:22:09;;;;;;;1.20;0.50;;;;;;;35.01;18.07;99874.30;431564;1271;141218;-61
2022/07/29 08:32:15;;;;;;;3.20;0.90;;;;;;;30.22;22.12;99878.77;431331;1271;142808;-61
2022/07/29 08:42:42;;;;;;;3.30;0.40;;;;;;;27.98;24.65;99889.52;431377;1271;145572;-59
2022/07/29 08:52:50;;;;;;;2.00;0.40;;;;;;;27.72;25.91;99887.71;431098;1270;141996;-60
2022/07/29 09:03:01;;;;;;;2.80;0.70;;;;;;;28.07;26.17;99887.92;431880;1270;140678;-61
2022/07/29 09:13:07;;;;;;;1.60;1.30;;;;;;;28.23;26.37;99886.55;432333;1270;139746;-60
2022/07/29 09:23:14;;;;;;;2.10;1.00;;;;;;;27.85;26.55;99889.38;431812;1270;141556;-61
2022/07/29 09:33:35;;;;;;;1.70;0.80;;;;;;;27.88;27.02;99883.27;436679;1270;140420;-63
2022/07/29 09:43:42;;;;;;;4.00;0.80;;;;;;;27.29;26.88;99883.91;431322;1271;141534;-61
2022/07/29 09:53:48;;;;;;;2.40;0.70;;;;;;;27.09;27.01;99865.29;432047;1271;140708;-65
2022/07/29 10:03:54;;;;;;;3.10;1.00;;;;;;;27.13;27.08;99854.31;431733;1271;142115;-62
2022/07/29 10:14:02;;;;;;;2.30;1.00;;;;;;;27.17;27.30;99854.38;430997;1271;141513;-62
2022/07/29 10:24:09;;;;;;;1.00;0.60;;;;;;;27.21;27.37;99841.70;432028;1273;146608;-61
2022/07/29 10:34:31;;;;;;;1.40;1.00;;;;;;;26.82;28.06;99840.52;431987;1271;147015;-59
2022/07/29 10:44:40;;;;;;;6.50;1.00;;;;;;;26.84;28.71;99832.07;431549;1271;140748;-61
2022/07/29 10:54:52;;;;;;;2.00;0.70;;;;;;;26.85;28.91;99831.96;431480;1271;141627;-63
2022/07/29 11:05:06;;;;;;;3.90;1.10;;;;;;;26.66;29.19;99819.63;430815;1273;145934;-61
2022/07/29 11:15:18;;;;;;;3.10;0.90;;;;;;;26.68;28.93;99809.73;431480;1271;142556;-62
2022/07/29 11:25:25;;;;;;;1.00;0.70;;;;;;;26.77;28.74;99804.56;431228;1271;340025;-62
2022/07/29 11:36:10;;;;;;;1.80;0.90;;;;;;;27.07;28.54;99803.05;431371;1271;141809;-61
2022/07/29 11:46:49;;;;;;;3.10;1.00;;;;;;;26.91;28.13;99804.63;432812;1271;145333;-60
2022/07/29 11:56:55;;;;;;;1.00;0.90;;;;;;;26.89;27.56;99813.47;432396;1271;143166;-61
2022/07/29 12:07:01;;;;;;;1.30;0.90;;;;;;;27.24;28.10;99798.67;431813;1271;142142;-62
2022/07/29 12:17:28;;;;;;;2.50;1.60;;;;;;;27.31;28.35;99797.65;430863;1271;142205;-61
2022/07/29 12:27:35;;;;;;;5.20;1.20;;;;;;;27.02;28.59;99785.95;431437;1269;142523;-62
2022/07/29 12:37:48;;;;;;;0.90;0.60;;;;;;;27.06;29.06;99778.79;430308;1271;142422;-61
2022/07/29 12:47:54;;;;;;;3.80;1.10;;;;;;;26.95;29.61;99775.11;431014;1271;142335;-60
2022/07/29 12:58:00;;;;;;;2.70;0.90;;;;;;;26.93;29.56;99764.66;431676;1271;142662;-62
2022/07/29 13:08:14;;;;;;;4.90;1.10;;;;;;;26.89;30.07;99754.06;430782;1270;141536;-62
2022/07/29 13:18:32;;;;;;;2.60;0.70;;;;;;;26.90;30.41;99749.77;431670;1270;141596;-61
2022/07/29 13:28:38;;;;;;;1.40;0.80;;;;;;;26.75;30.82;99743.98;430761;1270;143293;-62
2022/07/29 13:38:44;;;;;;;1.60;1.30;;;;;;;26.59;31.29;99736.20;431512;1270;140970;-62
2022/07/29 13:48:50;;;;;;;1.90;1.10;;;;;;;26.79;31.37;99722.90;431764;1270;145609;-62
2022/07/29 13:58:56;;;;;;;4.70;1.20;;;;;;;26.41;32.05;99724.48;430943;1270;163779;-62
2022/07/29 14:09:05;;;;;;;2.60;0.70;;;;;;;26.08;32.57;99719.00;431276;1271;141670;-62
2022/07/29 14:19:11;;;;;;;4.90;1.10;;;;;;;25.68;33.16;99716.05;430706;1273;144971;-60
2022/07/29 14:29:18;;;;;;;2.20;0.90;;;;;;;25.63;33.65;99710.62;431444;1271;142649;-61
2022/07/29 14:39:24;;;;;;;2.60;1.00;;;;;;;25.52;33.88;99695.02;431286;1270;146695;-60
2022/07/29 14:49:36;;;;;;;2.20;0.80;;;;;;;25.45;34.11;99688.53;430863;1271;161936;-62
2022/07/29 14:59:42;;;;;;;1.80;0.80;;;;;;;25.37;34.30;99686.39;431161;1271;141512;-59
2022/07/29 15:09:48;;;;;;;2.70;1.30;;;;;;;25.31;34.41;99675.35;430880;1273;146598;-62
2022/07/29 15:19:55;;;;;;;3.80;1.60;;;;;;;25.09;34.53;99658.77;431053;1270;142690;-61
2022/07/29 15:30:01;;;;;;;0.90;0.70;;;;;;;25.01;34.72;99659.56;431241;1273;142333;-61
2022/07/29 15:40:09;;;;;;;1.90;0.70;;;;;;;24.83;35.03;99656.94;431192;1271;141558;-61
2022/07/29 15:50:15;;;;;;;2.80;1.20;;;;;;;24.78;35.32;99656.06;430359;1271;142708;-60
2022/07/29 16:00:23;;;;;;;2.20;1.40;;;;;;;24.64;35.59;99650.27;431430;1271;142446;-62
2022/07/29 16:10:28;;;;;;;1.10;0.90;;;;;;;24.44;35.74;99641.08;432005;1271;140951;-62
2022/07/29 16:20:34;;;;;;;3.00;0.80;;;;;;;24.10;36.16;99637.77;431082;1270;141430;-63
2022/07/29 16:30:41;;;;;;;3.10;1.10;;;;;;;23.93;36.71;99643.53;432520;1270;142179;-62
2022/07/29 16:40:47;;;;;;;3.60;1.30;;;;;;;23.84;36.98;99645.85;430982;1270;141262;-60
2022/07/29 16:50:53;;;;;;;1.40;0.70;;;;;;;23.74;37.74;99643.77;431567;1270;142660;-60
2022/07/29 17:00:59;;;;;;;2.00;1.10;;;;;;;23.51;38.43;99643.49;431605;1270;141330;-63
2022/07/29 17:11:05;;;;;;;1.70;0.60;;;;;;;23.33;38.45;99648.81;431131;1270;144959;-61
2022/07/29 17:21:10;;;;;;;2.20;0.70;;;;;;;23.16;38.75;99652.36;434567;1270;141405;-62
2022/07/29 17:31:16;;;;;;;5.60;1.70;;;;;;;22.99;39.35;99658.25;431540;1269;141082;-61
2022/07/29 17:41:23;;;;;;;2.60;1.10;;;;;;;22.98;39.34;99654.54;430837;1270;140424;-62
2022/07/29 17:51:29;;;;;;;4.00;0.70;;;;;;;22.74;39.58;99653.89;431501;1271;141488;-61
2022/07/29 18:01:36;;;;;;;2.20;0.70;;;;;;;22.47;40.28;99652.12;430548;1271;142538;-62
2022/07/29 18:11:42;;;;;;;3.90;1.10;;;;;;;22.18;40.75;99644.67;431489;1270;141706;-62
2022/07/29 18:21:50;;;;;;;2.80;1.00;;;;;;;21.93;41.23;99651.33;431523;1269;142179;-63
2022/07/29 18:32:00;;;;;;;4.70;1.40;;;;;;;21.79;41.64;99655.98;430655;1270;141376;-62
2022/07/29 18:42:07;;;;;;;6.80;1.30;;;;;;;21.69;42.07;99657.59;431699;1270;141698;-63
2022/07/29 18:52:13;;;;;;;3.80;1.60;;;;;;;21.56;42.44;99658.38;431723;1271;145206;-64
2022/07/29 19:02:18;;;;;;;3.00;0.80;;;;;;;21.44;42.72;99668.77;431180;1270;140918;-60
2022/07/29 19:12:25;;;;;;;1.40;1.10;;;;;;;21.34;43.12;99674.48;431923;1270;141693;-64
2022/07/29 19:22:32;;;;;;;3.70;1.40;;;;;;;21.22;43.43;99680.52;431465;1273;141058;-63
2022/07/29 19:32:38;;;;;;;1.20;0.90;;;;;;;21.08;43.82;99684.50;432172;1270;141247;-60
2022/07/29 19:42:44;;;;;;;4.20;1.50;;;;;;;20.95;44.11;99677.08;431533;1270;141606;-60
2022/07/29 19:52:50;;;;;;;3.60;1.00;;;;;;;20.80;44.63;99676.83;431331;1270;142152;-63
2022/07/29 20:02:57;;;;;;;4.40;1.10;;;;;;;20.65;45.08;99668.70;431848;1270;141215;-63
2022/07/29 20:13:03;;;;;;;2.40;1.60;;;;;;;20.54;45.51;99654.73;431921;1271;140771;-63
2022/07/29 20:23:10;;;;;;;0.90;0.80;;;;;;;20.46;45.62;99647.98;431228;1270;141616;-63
2022/07/29 20:33:16;;;;;;;3.40;1.00;;;;;;;20.42;45.71;99653.16;431506;1270;144395;-62
2022/07/29 20:43:22;;;;;;;1.40;1.30;;;;;;;20.38;45.76;99645.62;430955;1270;142155;-63
2022/07/29 20:53:28;;;;;;;2.10;1.00;;;;;;;20.32;45.89;99645.19;430323;1270;141825;-62
2022/07/29 21:03:34;;;;;;;2.10;1.00;;;;;;;20.25;45.87;99640.54;432730;1270;142302;-62
2022/07/29 21:13:40;;;;;;;2.60;0.90;;;;;;;20.18;46.17;99646.20;430635;1270;142350;-62
2022/07/29 21:23:46;;;;;;;3.50;1.50;;;;;;;20.09;46.21;99641.30;431584;1271;140419;-65
2022/07/29 21:33:52;;;;;;;2.90;0.90;;;;;;;19.97;46.30;99637.17;431503;1270;142220;-63
2022/07/29 21:43:58;;;;;;;3.10;1.40;;;;;;;19.85;46.42;99634.58;431009;1270;143310;-65
2022/07/29 21:54:06;;;;;;;2.10;1.60;;;;;;;19.74;46.35;99631.55;431558;1271;141390;-62
2022/07/29 22:04:13;;;;;;;2.50;0.90;;;;;;;19.63;46.27;99628.55;433807;1271;142127;-65
2022/07/29 22:14:19;;;;;;;2.60;0.90;;;;;;;19.50;46.53;99634.27;430899;1270;145867;-63
2022/07/29 22:24:25;;;;;;;5.30;1.30;;;;;;;19.39;46.62;99636.64;431666;1270;142842;-63
2022/07/29 22:34:31;;;;;;;1.20;0.70;;;;;;;19.29;46.91;99635.60;431962;1270;141506;-62
2022/07/29 22:44:42;;;;;;;2.80;1.20;;;;;;;19.18;47.36;99637.96;431598;1270;141017;-61
2022/07/29 22:54:48;;;;;;;1.90;1.00;;;;;;;19.10;47.85;99624.42;431628;1270;144921;-63
2022/07/29 23:04:54;;;;;;;2.40;0.80;;;;;;;19.03;48.03;99619.41;430896;1270;143765;-62
2022/07/29 23:15:00;;;;;;;2.00;0.80;;;;;;;19.01;48.07;99608.64;431660;1270;141583;-64
2022/07/29 23:25:07;;;;;;;3.40;0.90;;;;;;;19.09;47.94;99595.08;431259;1270;531009;-63
2022/07/29 23:35:13;;;;;;;3.00;0.80;;;;;;;19.15;47.62;99585.79;431155;1268;141794;-63
2022/07/29 23:45:19;;;;;;;1.30;0.90;;;;;;;19.15;47.67;99590.68;431451;1270;142317;-62
2022/07/29 23:55:25;;;;;;;1.30;0.90;;;;;;;19.10;47.65;99577.71;431685;1270;142052;-59
